Wetterdaten: aktuell Montag, 22.10.2018 16:50
Datum Zeit Temp. Feuchte Luftdruck Regen Wind Richtung Richtung Sonnenschein UV Solar Windchill Windben
22.10.2018 16:50 13.8 C 55 % 1029.2 hPa 0.0 mm 8.6 km/h O 100 10 min 0.5 UV-I 176.0 W/m 12.5 C 17.7 km/h
22.10.2018 16:40 13.8 C 56 % 1029.1 hPa 0.0 mm 8.6 km/h O-NO 70 10 min 0.5 UV-I 206.0 W/m 12.5 C 17.7 km/h
22.10.2018 16:30 13.9 C 54 % 1029.1 hPa 0.0 mm 9.4 km/h NO 55 10 min 0.6 UV-I 236.0 W/m 12.2 C 19.3 km/h
22.10.2018 16:20 13.8 C 55 % 1029.0 hPa 0.0 mm 7.6 km/h O-NO 63 10 min 0.7 UV-I 258.0 W/m 13.1 C 19.3 km/h
22.10.2018 16:10 13.8 C 54 % 1028.9 hPa 0.0 mm 7.8 km/h O-NO 67 10 min 0.8 UV-I 281.0 W/m 13.0 C 17.7 km/h
22.10.2018 16:00 14.0 C 54 % 1028.9 hPa 0.0 mm 7.0 km/h NO 51 10 min 1.0 UV-I 306.0 W/m 13.6 C 14.5 km/h
22.10.2018 15:50 14.2 C 54 % 1028.9 hPa 0.0 mm 6.3 km/h O-SO 117 10 min 1.1 UV-I 329.0 W/m 14.2 C 14.5 km/h
22.10.2018 15:40 14.1 C 53 % 1028.9 hPa 0.0 mm 7.9 km/h O-NO 78 10 min 1.2 UV-I 346.0 W/m 13.2 C 19.3 km/h
22.10.2018 15:30 13.8 C 55 % 1028.9 hPa 0.0 mm 8.2 km/h O-NO 61 10 min 1.3 UV-I 366.0 W/m 12.7 C 16.1 km/h
22.10.2018 15:20 13.7 C 56 % 1028.8 hPa 0.0 mm 12.2 km/h O 87 10 min 1.4 UV-I 385.0 W/m 10.7 C 25.7 km/h
22.10.2018 15:10 13.5 C 55 % 1028.8 hPa 0.0 mm 14.6 km/h O-NO 75 10 min 1.5 UV-I 404.0 W/m 9.5 C 24.1 km/h
22.10.2018 15:00 13.3 C 54 % 1028.6 hPa 0.0 mm 14.1 km/h O-NO 62 10 min 1.6 UV-I 422.0 W/m 9.5 C 24.1 km/h
22.10.2018 14:50 13.6 C 56 % 1028.7 hPa 0.0 mm 9.9 km/h O-SO 118 10 min 1.7 UV-I 434.0 W/m 11.6 C 20.9 km/h
22.10.2018 14:40 13.1 C 57 % 1028.8 hPa 0.0 mm 13.1 km/h N-NO 22 10 min 1.9 UV-I 448.0 W/m 9.6 C 24.1 km/h
22.10.2018 14:30 13.1 C 57 % 1028.7 hPa 0.0 mm 13.5 km/h O 100 10 min 1.9 UV-I 459.0 W/m 9.5 C 22.5 km/h
22.10.2018 14:20 12.7 C 57 % 1028.9 hPa 0.0 mm 12.1 km/h O-NO 72 10 min 2.0 UV-I 464.0 W/m 9.6 C 22.5 km/h
22.10.2018 14:10 12.8 C 58 % 1028.9 hPa 0.0 mm 9.3 km/h O-NO 67 10 min 2.1 UV-I 476.0 W/m 11.1 C 19.3 km/h
22.10.2018 14:00 12.9 C 58 % 1028.9 hPa 0.0 mm 8.6 km/h O 87 10 min 2.2 UV-I 483.0 W/m 11.5 C 17.7 km/h
22.10.2018 13:50 12.4 C 60 % 1028.9 hPa 0.0 mm 9.8 km/h O-NO 66 10 min 2.2 UV-I 492.0 W/m 10.4 C 19.3 km/h
22.10.2018 13:40 12.6 C 60 % 1028.9 hPa 0.0 mm 9.4 km/h O-SO 121 10 min 2.2 UV-I 496.0 W/m 10.8 C 22.5 km/h
22.10.2018 13:30 12.2 C 63 % 1028.9 hPa 0.0 mm 10.6 km/h O-NO 78 10 min 2.3 UV-I 496.0 W/m 9.7 C 20.9 km/h
22.10.2018 13:20 12.4 C 62 % 1029.1 hPa 0.0 mm 4.3 km/h NO 47 10 min 2.3 UV-I 501.0 W/m 12.4 C 19.3 km/h
22.10.2018 13:10 11.8 C 60 % 1029.3 hPa 0.0 mm 7.7 km/h O 79 10 min 2.3 UV-I 503.0 W/m 10.9 C 16.1 km/h
22.10.2018 13:00 11.7 C 62 % 1029.2 hPa 0.0 mm 6.2 km/h O 90 10 min 2.3 UV-I 497.0 W/m 11.7 C 17.7 km/h
22.10.2018 12:50 11.5 C 62 % 1029.3 hPa 0.0 mm 3.8 km/h O-NO 74 10 min 2.3 UV-I 494.0 W/m 11.5 C 16.1 km/h
22.10.2018 12:40 11.3 C 63 % 1029.3 hPa 0.0 mm 5.0 km/h N-NO 21 10 min 2.2 UV-I 492.0 W/m 11.3 C 14.5 km/h
22.10.2018 12:30 10.9 C 64 % 1029.2 hPa 0.0 mm 7.8 km/h O-NO 59 10 min 2.2 UV-I 489.0 W/m 9.9 C 17.7 km/h
22.10.2018 12:20 10.8 C 64 % 1029.2 hPa 0.0 mm 5.8 km/h SO 134 10 min 2.2 UV-I 485.0 W/m 10.8 C 16.1 km/h
22.10.2018 12:10 10.7 C 65 % 1029.1 hPa 0.0 mm 6.1 km/h O-NO 59 10 min 2.1 UV-I 476.0 W/m 10.7 C 17.7 km/h
22.10.2018 12:00 10.4 C 69 % 1029.1 hPa 0.0 mm 5.4 km/h O 88 10 min 2.0 UV-I 471.0 W/m 10.4 C 11.3 km/h
22.10.2018 11:50 10.2 C 65 % 1029.2 hPa 0.0 mm 4.3 km/h O 96 10 min 1.9 UV-I 457.0 W/m 10.2 C 14.5 km/h
22.10.2018 11:40 9.8 C 68 % 1029.0 hPa 0.0 mm 2.3 km/h O-NO 66 10 min 1.8 UV-I 443.0 W/m 9.8 C 8.0 km/h
22.10.2018 11:30 9.8 C 69 % 1029.2 hPa 0.0 mm 3.2 km/h NO 53 10 min 1.7 UV-I 432.0 W/m 9.8 C 9.7 km/h
22.10.2018 11:20 9.6 C 70 % 1029.1 hPa 0.0 mm 3.9 km/h O 92 10 min 1.6 UV-I 411.0 W/m 9.6 C 14.5 km/h
22.10.2018 11:10 9.1 C 72 % 1029.0 hPa 0.0 mm 5.1 km/h O-NO 66 10 min 1.4 UV-I 397.0 W/m 9.1 C 12.9 km/h
22.10.2018 11:00 8.9 C 72 % 1029.0 hPa 0.0 mm 3.3 km/h N 5 10 min 1.3 UV-I 380.0 W/m 8.9 C 9.7 km/h
22.10.2018 10:50 8.6 C 73 % 1028.9 hPa 0.0 mm 4.1 km/h NO 54 10 min 1.2 UV-I 360.0 W/m 8.6 C 8.0 km/h
22.10.2018 10:40 8.6 C 75 % 1028.8 hPa 0.0 mm 3.5 km/h O-NO 74 10 min 1.1 UV-I 338.0 W/m 8.6 C 12.9 km/h
22.10.2018 10:30 8.1 C 73 % 1028.9 hPa 0.0 mm 2.6 km/h NO 53 10 min 1.0 UV-I 318.0 W/m 8.1 C 11.3 km/h
22.10.2018 10:20 7.9 C 76 % 1028.9 hPa 0.0 mm 3.0 km/h N 350 10 min 0.9 UV-I 292.0 W/m 7.9 C 8.0 km/h
22.10.2018 10:10 7.6 C 77 % 1028.9 hPa 0.0 mm 2.1 km/h O-NO 61 10 min 0.8 UV-I 278.0 W/m 7.6 C 8.0 km/h
22.10.2018 10:00 7.2 C 79 % 1028.7 hPa 0.0 mm 1.0 km/h O-NO 57 10 min 0.7 UV-I 255.0 W/m 7.2 C 4.8 km/h
22.10.2018 09:50 6.0 C 83 % 1028.8 hPa 0.0 mm 0.3 km/h O 79 10 min 0.5 UV-I 227.0 W/m 6.0 C 3.2 km/h
22.10.2018 09:40 5.1 C 86 % 1028.7 hPa 0.0 mm 0.5 km/h O 79 10 min 0.5 UV-I 204.0 W/m 5.1 C 1.6 km/h
22.10.2018 09:30 4.3 C 89 % 1028.4 hPa 0.0 mm 0.5 km/h O 79 10 min 0.0 UV-I 178.0 W/m 4.3 C 3.2 km/h
22.10.2018 09:20 4.0 C 88 % 1028.2 hPa 0.0 mm 0.4 km/h O 79 10 min 0.0 UV-I 149.0 W/m 4.0 C 3.2 km/h
22.10.2018 09:10 4.3 C 87 % 1028.0 hPa 0.0 mm 3.0 km/h O 79 0 min 0.0 UV-I 33.0 W/m 4.3 C 6.4 km/h
22.10.2018 09:00 4.1 C 88 % 1027.9 hPa 0.0 mm 4.0 km/h O-NO 66 0 min 0.0 UV-I 26.0 W/m 4.1 C 6.4 km/h
22.10.2018 08:50 3.1 C 90 % 1027.9 hPa 0.0 mm 1.5 km/h O 79 0 min 0.0 UV-I 25.0 W/m 3.1 C 6.4 km/h
22.10.2018 08:40 3.1 C 90 % 1027.9 hPa 0.0 mm 0.0 km/h O-SO 111 0 min 0.0 UV-I 23.0 W/m 3.1 C 0.0 km/h
22.10.2018 08:30 2.8 C 89 % 1027.9 hPa 0.0 mm 0.0 km/h O-SO 111 0 min 0.0 UV-I 19.0 W/m 2.8 C 0.0 km/h
22.10.2018 08:20 3.2 C 90 % 1027.7 hPa 0.0 mm 0.0 km/h O-SO 111 0 min 0.0 UV-I 16.0 W/m 3.2 C 0.0 km/h
22.10.2018 08:10 2.8 C 90 % 1027.5 hPa 0.0 mm 0.0 km/h O-SO 111 0 min 0.0 UV-I 11.0 W/m 2.8 C 0.0 km/h
22.10.2018 08:00 2.8 C 90 % 1027.3 hPa 0.0 mm 0.0 km/h N-NO 30 0 min 0.0 UV-I 5.0 W/m 2.8 C 0.0 km/h
22.10.2018 07:50 2.8 C 90 % 1027.2 hPa 0.0 mm 0.0 km/h N-NO 30 0 min 0.0 UV-I 0.0 W/m 2.8 C 0.0 km/h
22.10.2018 07:40 2.6 C 92 % 1027.1 hPa 0.0 mm 0.0 km/h N-NO 30 0 min 0.0 UV-I 0.0 W/m 2.6 C 0.0 km/h
22.10.2018 07:30 2.3 C 91 % 1027.1 hPa 0.0 mm 0.0 km/h N-NO 30 0 min 0.0 UV-I 0.0 W/m 2.3 C 0.0 km/h
22.10.2018 07:20 2.4 C 91 % 1026.9 hPa 0.0 mm 0.0 km/h N-NO 30 0 min 0.0 UV-I 0.0 W/m 2.4 C 0.0 km/h
22.10.2018 07:10 2.3 C 91 % 1026.9 hPa 0.0 mm 0.0 km/h N-NO 30 0 min 0.0 UV-I 0.0 W/m 2.3 C 0.0 km/h
22.10.2018 07:00 2.3 C 92 % 1026.7 hPa 0.0 mm 0.0 km/h N-NO 30 0 min 0.0 UV-I 0.0 W/m 2.3 C 0.0 km/h
22.10.2018 06:50 2.2 C 91 % 1026.6 hPa 0.0 mm 0.0 km/h N-NO 30 0 min 0.0 UV-I 0.0 W/m 2.2 C 0.0 km/h
22.10.2018 06:40 2.7 C 91 % 1026.7 hPa 0.0 mm 0.0 km/h O-NO 76 0 min 0.0 UV-I 0.0 W/m 2.7 C 0.0 km/h
22.10.2018 06:30 2.6 C 92 % 1026.6 hPa 0.0 mm 0.0 km/h O-NO 76 0 min 0.0 UV-I 0.0 W/m 2.6 C 0.0 km/h
22.10.2018 06:20 2.3 C 91 % 1026.8 hPa 0.0 mm 0.0 km/h O-NO 76 0 min 0.0 UV-I 0.0 W/m 2.3 C 0.0 km/h
22.10.2018 06:10 2.4 C 90 % 1026.7 hPa 0.0 mm 0.0 km/h O-NO 76 0 min 0.0 UV-I 0.0 W/m 2.4 C 0.0 km/h
22.10.2018 06:00 2.6 C 90 % 1026.6 hPa 0.0 mm 0.0 km/h O-NO 76 0 min 0.0 UV-I 0.0 W/m 2.6 C 0.0 km/h
22.10.2018 05:50 2.7 C 90 % 1026.5 hPa 0.0 mm 0.0 km/h O-NO 76 0 min 0.0 UV-I 0.0 W/m 2.7 C 0.0 km/h
22.10.2018 05:40 2.7 C 89 % 1026.6 hPa 0.0 mm 0.6 km/h O-NO 76 0 min 0.0 UV-I 0.0 W/m 2.7 C 3.2 km/h
22.10.2018 05:30 2.8 C 90 % 1026.4 hPa 0.0 mm 1.1 km/h O-NO 76 0 min 0.0 UV-I 0.0 W/m 2.8 C 3.2 km/h
22.10.2018 05:20 3.1 C 89 % 1026.3 hPa 0.0 mm 0.0 km/h O-NO 76 0 min 0.0 UV-I 0.0 W/m 3.1 C 0.0 km/h
22.10.2018 05:10 3.0 C 90 % 1026.3 hPa 0.0 mm 0.0 km/h O-NO 76 0 min 0.0 UV-I 0.0 W/m 3.0 C 0.0 km/h
22.10.2018 05:00 2.8 C 90 % 1026.3 hPa 0.0 mm 0.0 km/h O-NO 76 0 min 0.0 UV-I 0.0 W/m 2.8 C 0.0 km/h
22.10.2018 04:50 2.9 C 90 % 1026.3 hPa 0.0 mm 0.2 km/h O-NO 76 0 min 0.0 UV-I 0.0 W/m 2.9 C 1.6 km/h
22.10.2018 04:40 2.9 C 90 % 1026.3 hPa 0.0 mm 1.9 km/h O-NO 76 0 min 0.0 UV-I 0.0 W/m 2.9 C 4.8 km/h
22.10.2018 04:30 2.9 C 89 % 1026.1 hPa 0.0 mm 2.9 km/h O-NO 76 0 min 0.0 UV-I 0.0 W/m 2.9 C 4.8 km/h
22.10.2018 04:20 2.9 C 89 % 1026.4 hPa 0.0 mm 3.4 km/h O 89 0 min 0.0 UV-I 0.0 W/m 2.9 C 6.4 km/h
22.10.2018 04:10 3.1 C 88 % 1026.4 hPa 0.0 mm 3.5 km/h O 89 0 min 0.0 UV-I 0.0 W/m 3.1 C 6.4 km/h
22.10.2018 04:00 3.5 C 87 % 1026.5 hPa 0.0 mm 1.5 km/h O 92 0 min 0.0 UV-I 0.0 W/m 3.5 C 4.8 km/h
22.10.2018 03:50 3.8 C 87 % 1026.5 hPa 0.0 mm 2.0 km/h SO 131 0 min 0.0 UV-I 0.0 W/m 3.8 C 3.2 km/h
22.10.2018 03:40 4.1 C 85 % 1026.4 hPa 0.0 mm 1.7 km/h O 92 0 min 0.0 UV-I 0.0 W/m 4.1 C 4.8 km/h
22.10.2018 03:30 4.4 C 86 % 1026.5 hPa 0.0 mm 2.5 km/h SO 132 0 min 0.0 UV-I 0.0 W/m 4.4 C 4.8 km/h
22.10.2018 03:20 4.5 C 84 % 1026.4 hPa 0.0 mm 2.1 km/h O-SO 118 0 min 0.0 UV-I 0.0 W/m 4.5 C 4.8 km/h
22.10.2018 03:10 5.1 C 83 % 1026.5 hPa 0.0 mm 3.0 km/h S-SO 150 0 min 0.0 UV-I 0.0 W/m 5.1 C 4.8 km/h
22.10.2018 03:00 5.3 C 82 % 1026.6 hPa 0.0 mm 3.6 km/h S-SO 151 0 min 0.0 UV-I 0.0 W/m 5.3 C 6.4 km/h
22.10.2018 02:50 5.0 C 83 % 1026.6 hPa 0.0 mm 2.0 km/h S-SO 159 0 min 0.0 UV-I 0.0 W/m 5.0 C 6.4 km/h
22.10.2018 02:40 5.3 C 82 % 1026.6 hPa 0.0 mm 2.9 km/h S-SO 159 0 min 0.0 UV-I 0.0 W/m 5.3 C 6.4 km/h
22.10.2018 02:30 5.3 C 83 % 1026.7 hPa 0.0 mm 3.2 km/h S-SO 153 0 min 0.0 UV-I 0.0 W/m 5.3 C 4.8 km/h
22.10.2018 02:20 4.7 C 86 % 1026.7 hPa 0.0 mm 0.9 km/h O-SO 102 0 min 0.0 UV-I 0.0 W/m 4.7 C 4.8 km/h
22.10.2018 02:10 4.3 C 87 % 1026.8 hPa 0.0 mm 0.0 km/h O 97 0 min 0.0 UV-I 0.0 W/m 4.3 C 0.0 km/h
22.10.2018 02:00 4.1 C 86 % 1026.9 hPa 0.0 mm 0.0 km/h O 80 0 min 0.0 UV-I 0.0 W/m 4.1 C 0.0 km/h
22.10.2018 01:50 4.6 C 85 % 1026.9 hPa 0.0 mm 0.0 km/h O 80 0 min 0.0 UV-I 0.0 W/m 4.6 C 1.6 km/h
22.10.2018 01:40 4.9 C 85 % 1026.8 hPa 0.0 mm 0.0 km/h O-SO 102 0 min 0.0 UV-I 0.0 W/m 4.9 C 0.0 km/h
22.10.2018 01:30 5.4 C 82 % 1026.9 hPa 0.0 mm 1.0 km/h O-SO 102 0 min 0.0 UV-I 0.0 W/m 5.4 C 4.8 km/h
22.10.2018 01:20 5.9 C 81 % 1027.0 hPa 0.0 mm 1.9 km/h O 101 0 min 0.0 UV-I 0.0 W/m 5.9 C 6.4 km/h
22.10.2018 01:10 5.9 C 80 % 1027.0 hPa 0.0 mm 3.2 km/h O-NO 76 0 min 0.0 UV-I 0.0 W/m 5.9 C 4.8 km/h
22.10.2018 01:00 5.4 C 84 % 1027.0 hPa 0.0 mm 3.1 km/h O-NO 64 0 min 0.0 UV-I 0.0 W/m 5.4 C 6.4 km/h
22.10.2018 00:50 5.3 C 84 % 1027.0 hPa 0.0 mm 1.3 km/h O-NO 58 0 min 0.0 UV-I 0.0 W/m 5.3 C 4.8 km/h
22.10.2018 00:40 5.8 C 82 % 1027.0 hPa 0.0 mm 0.7 km/h O-NO 71 0 min 0.0 UV-I 0.0 W/m 5.8 C 3.2 km/h
22.10.2018 00:30 6.4 C 81 % 1026.8 hPa 0.0 mm 1.2 km/h O-NO 71 0 min 0.0 UV-I 0.0 W/m 6.4 C 3.2 km/h
22.10.2018 00:20 6.4 C 81 % 1027.0 hPa 0.0 mm 0.3 km/h O-NO 71 0 min 0.0 UV-I 0.0 W/m 6.4 C 3.2 km/h
22.10.2018 00:10 6.6 C 82 % 1026.9 hPa 0.0 mm 0.3 km/h O-NO 62 0 min 0.0 UV-I 0.0 W/m 6.6 C 4.8 km/h
22.10.2018 00:00 6.6 C 83 % 1026.9 hPa 0.0 mm 1.0 km/h O-SO 122 0 min 0.0 UV-I 0.0 W/m 6.6 C 3.2 km/h
21.10.2018 23:50 6.9 C 81 % 1026.8 hPa 0.0 mm 1.5 km/h S 182 0 min 0.0 UV-I 0.0 W/m 6.9 C 3.2 km/h
21.10.2018 23:40 7.2 C 81 % 1026.9 hPa 0.0 mm 1.4 km/h S 182 0 min 0.0 UV-I 0.0 W/m 7.2 C 3.2 km/h
21.10.2018 23:30 7.3 C 82 % 1026.9 hPa 0.0 mm 1.6 km/h S 182 0 min 0.0 UV-I 0.0 W/m 7.3 C 4.8 km/h
21.10.2018 23:20 7.3 C 81 % 1026.7 hPa 0.0 mm 1.4 km/h O-SO 122 0 min 0.0 UV-I 0.0 W/m 7.3 C 3.2 km/h
21.10.2018 23:10 7.5 C 81 % 1026.6 hPa 0.0 mm 1.0 km/h O-SO 116 0 min 0.0 UV-I 0.0 W/m 7.5 C 4.8 km/h
21.10.2018 23:00 7.6 C 81 % 1026.5 hPa 0.0 mm 0.8 km/h NO 45 0 min 0.0 UV-I 0.0 W/m 7.6 C 6.4 km/h
21.10.2018 22:50 8.0 C 79 % 1026.5 hPa 0.0 mm 0.4 km/h O-NO 73 0 min 0.0 UV-I 0.0 W/m 8.0 C 3.2 km/h
21.10.2018 22:40 8.3 C 78 % 1026.5 hPa 0.0 mm 3.2 km/h N 355 0 min 0.0 UV-I 0.0 W/m 8.3 C 8.0 km/h
21.10.2018 22:30 8.3 C 78 % 1026.5 hPa 0.0 mm 4.4 km/h O-NO 76 0 min 0.0 UV-I 0.0 W/m 8.3 C 8.0 km/h
21.10.2018 22:20 8.0 C 80 % 1026.6 hPa 0.0 mm 1.3 km/h O-NO 60 0 min 0.0 UV-I 0.0 W/m 8.0 C 6.4 km/h
21.10.2018 22:10 8.1 C 81 % 1026.6 hPa 0.0 mm 1.0 km/h NO 46 0 min 0.0 UV-I 0.0 W/m 8.1 C 3.2 km/h
21.10.2018 22:00 8.6 C 80 % 1026.5 hPa 0.0 mm 2.7 km/h NW 314 0 min 0.0 UV-I 0.0 W/m 8.6 C 6.4 km/h
21.10.2018 21:50 8.9 C 79 % 1026.4 hPa 0.0 mm 4.3 km/h SW 229 0 min 0.0 UV-I 0.0 W/m 8.9 C 6.4 km/h
21.10.2018 21:40 8.9 C 80 % 1026.5 hPa 0.0 mm 2.9 km/h SW 230 0 min 0.0 UV-I 0.0 W/m 8.9 C 6.4 km/h
21.10.2018 21:30 9.4 C 77 % 1026.5 hPa 0.0 mm 1.8 km/h N-NW 342 0 min 0.0 UV-I 0.0 W/m 9.4 C 8.0 km/h
21.10.2018 21:20 9.9 C 76 % 1026.3 hPa 0.0 mm 3.9 km/h N-NW 346 0 min 0.0 UV-I 0.0 W/m 9.9 C 12.9 km/h
21.10.2018 21:10 10.1 C 75 % 1026.3 hPa 0.0 mm 6.4 km/h N 360 0 min 0.0 UV-I 0.0 W/m 10.1 C 16.1 km/h
21.10.2018 21:00 9.8 C 77 % 1026.4 hPa 0.0 mm 9.0 km/h NO 53 0 min 0.0 UV-I 0.0 W/m 8.0 C 16.1 km/h
21.10.2018 20:50 9.2 C 80 % 1026.5 hPa 0.0 mm 6.5 km/h NO 55 0 min 0.0 UV-I 0.0 W/m 9.2 C 12.9 km/h
21.10.2018 20:40 9.4 C 79 % 1026.5 hPa 0.0 mm 4.6 km/h NO 49 0 min 0.0 UV-I 0.0 W/m 9.4 C 9.7 km/h
21.10.2018 20:30 9.9 C 78 % 1026.5 hPa 0.0 mm 4.3 km/h O-NO 60 0 min 0.0 UV-I 0.0 W/m 9.9 C 9.7 km/h
21.10.2018 20:20 9.8 C 79 % 1026.5 hPa 0.0 mm 3.5 km/h O-NO 61 0 min 0.0 UV-I 0.0 W/m 9.8 C 6.4 km/h
21.10.2018 20:10 9.9 C 80 % 1026.5 hPa 0.0 mm 3.0 km/h O 80 0 min 0.0 UV-I 0.0 W/m 9.9 C 8.0 km/h
21.10.2018 20:00 9.8 C 81 % 1026.5 hPa 0.0 mm 2.6 km/h O-NO 73 0 min 0.0 UV-I 0.0 W/m 9.8 C 8.0 km/h
21.10.2018 19:50 9.7 C 81 % 1026.4 hPa 0.0 mm 2.7 km/h O-NO 69 0 min 0.0 UV-I 0.0 W/m 9.7 C 4.8 km/h
21.10.2018 19:40 10.1 C 81 % 1026.4 hPa 0.0 mm 3.5 km/h O 81 0 min 0.0 UV-I 0.0 W/m 10.1 C 8.0 km/h
21.10.2018 19:30 9.7 C 82 % 1026.3 hPa 0.0 mm 4.0 km/h O 80 0 min 0.0 UV-I 0.0 W/m 9.7 C 6.4 km/h
21.10.2018 19:20 10.4 C 80 % 1026.3 hPa 0.0 mm 4.7 km/h O-NO 70 0 min 0.0 UV-I 0.0 W/m 10.4 C 6.4 km/h
21.10.2018 19:10 10.6 C 79 % 1026.3 hPa 0.0 mm 4.1 km/h O-NO 62 0 min 0.0 UV-I 0.0 W/m 10.6 C 6.4 km/h
21.10.2018 19:00 11.4 C 76 % 1026.2 hPa 0.0 mm 3.1 km/h O 94 0 min 0.0 UV-I 0.0 W/m 11.4 C 8.0 km/h
21.10.2018 18:50 11.8 C 75 % 1026.2 hPa 0.0 mm 3.7 km/h O 82 0 min 0.0 UV-I 0.0 W/m 11.8 C 8.0 km/h
21.10.2018 18:40 12.0 C 74 % 1026.0 hPa 0.0 mm 4.3 km/h O-NO 78 0 min 0.0 UV-I 0.0 W/m 12.0 C 8.0 km/h
21.10.2018 18:30 12.4 C 72 % 1025.9 hPa 0.0 mm 3.0 km/h O 79 0 min 0.0 UV-I 0.0 W/m 12.4 C 9.7 km/h
21.10.2018 18:20 12.7 C 72 % 1025.8 hPa 0.0 mm 3.1 km/h O 90 0 min 0.0 UV-I 9.0 W/m 12.7 C 8.0 km/h
21.10.2018 18:10 13.2 C 69 % 1025.8 hPa 0.0 mm 5.8 km/h O-NO 62 0 min 0.0 UV-I 16.0 W/m 13.2 C 12.9 km/h
21.10.2018 18:00 13.4 C 69 % 1025.9 hPa 0.0 mm 8.2 km/h O 87 0 min 0.0 UV-I 23.0 W/m 12.3 C 14.5 km/h
21.10.2018 17:50 13.9 C 68 % 1025.8 hPa 0.0 mm 11.5 km/h O-NO 63 0 min 0.0 UV-I 35.0 W/m 11.2 C 17.7 km/h
21.10.2018 17:40 14.2 C 68 % 1026.0 hPa 0.0 mm 8.8 km/h NO 53 0 min 0.0 UV-I 54.0 W/m 12.8 C 16.1 km/h
21.10.2018 17:30 14.4 C 68 % 1025.9 hPa 0.0 mm 8.6 km/h NO 53 0 min 0.0 UV-I 72.0 W/m 13.1 C 16.1 km/h
21.10.2018 17:20 14.6 C 69 % 1025.9 hPa 0.0 mm 4.6 km/h O 83 0 min 0.0 UV-I 95.0 W/m 14.6 C 14.5 km/h
21.10.2018 17:10 14.8 C 68 % 1025.9 hPa 0.0 mm 6.5 km/h O-NO 72 10 min 0.0 UV-I 118.0 W/m 14.8 C 12.9 km/h
21.10.2018 17:00 14.9 C 68 % 1026.0 hPa 0.0 mm 7.0 km/h O 90 10 min 0.0 UV-I 137.0 W/m 14.6 C 14.5 km/h
_ Min-Zeit 06:50 15:40 17:50 - 01:40 - - - - - 06:50 01:40
Minimum _ 2.2 C 53 % 1025.8 hPa - 0.0 km/h - - - - - 2.2 C 0.0 km/h
_ Max-Zeit 17:00 06:30 12:40 17:00 15:10 - - 17:00 12:50 13:10 17:10 15:20
Maximum _ 14.9 C 92 % 1029.3 hPa 0.0 mm 14.6 km/h
O-NO
- - 10 min 2.3 UV-I 503.0 W/m 14.8 C 25.7 km/h
O-NO
Durchschnitt _ 8.5 C 76 % 1027.3 hPa #0.0 mm 3.9 km/h O-NO - #7:40 h 1.5 UV-I 326.8 W/m 8.2 C 8.9 km/h